createdAt,value
2023-03-18T00:00:19.009Z,8.80
2023-03-18T00:02:49.389Z,11.13
2023-03-18T00:05:18.250Z,9.10
2023-03-18T00:07:47.434Z,8.80
2023-03-18T00:10:16.906Z,11.00
2023-03-18T00:12:44.944Z,9.10
2023-03-18T00:15:16.055Z,8.37
2023-03-18T00:17:44.348Z,11.67
2023-03-18T00:20:13.884Z,8.00
2023-03-18T00:22:43.207Z,11.50
2023-03-18T00:25:13.372Z,10.50
2023-03-18T00:27:42.505Z,11.30
2023-03-18T00:30:12.332Z,10.10
2023-03-18T00:32:41.385Z,13.37
2023-03-18T00:35:12.100Z,10.90
2023-03-18T00:37:39.988Z,8.53
2023-03-18T00:40:10.533Z,8.80
2023-03-18T00:42:47.420Z,6.90
2023-03-18T00:45:17.283Z,7.40
2023-03-18T00:47:45.404Z,7.90
2023-03-18T00:50:13.656Z,8.17
2023-03-18T00:52:41.495Z,6.80
2023-03-18T00:55:10.480Z,7.83
2023-03-18T00:57:38.332Z,9.40
2023-03-18T01:00:09.677Z,8.80
2023-03-18T01:02:37.508Z,11.73
2023-03-18T01:05:06.099Z,8.60
2023-03-18T01:07:33.871Z,9.50
2023-03-18T01:10:02.128Z,9.07
2023-03-18T01:12:33.211Z,7.60
2023-03-18T01:15:04.696Z,11.47
2023-03-18T01:17:33.903Z,8.00
2023-03-18T01:20:02.557Z,7.00
2023-03-18T01:22:30.468Z,6.33
2023-03-18T01:24:58.665Z,8.33
2023-03-18T01:27:26.992Z,11.90
2023-03-18T01:29:54.805Z,7.43
2023-03-18T01:32:24.079Z,9.33
2023-03-18T01:34:53.206Z,12.10
2023-03-18T01:39:49.606Z,7.20
2023-03-18T01:42:18.071Z,8.60
2023-03-18T01:44:46.180Z,6.20
2023-03-18T01:47:15.144Z,16.70
2023-03-18T01:49:47.023Z,14.70
2023-03-18T01:52:19.155Z,6.80
2023-03-18T01:54:50.395Z,10.73
2023-03-18T01:57:19.154Z,10.03
2023-03-18T01:59:49.440Z,9.37
2023-03-18T02:02:20.662Z,5.93
2023-03-18T02:04:51.733Z,12.63
2023-03-18T02:07:23.156Z,6.60
2023-03-18T02:09:53.178Z,6.33
2023-03-18T02:12:24.901Z,9.80
2023-03-18T02:14:54.112Z,6.60
2023-03-18T02:17:26.060Z,7.60
2023-03-18T02:20:04.106Z,9.30
2023-03-18T02:22:35.229Z,6.63
2023-03-18T02:25:20.467Z,8.23
2023-03-18T02:27:54.130Z,6.67
2023-03-18T02:30:26.964Z,6.67
2023-03-18T02:32:57.768Z,6.80
2023-03-18T02:35:27.736Z,6.63
2023-03-18T02:37:55.552Z,7.83
2023-03-18T02:40:26.688Z,8.60
2023-03-18T02:42:57.179Z,12.83
2023-03-18T02:45:39.573Z,5.60
2023-03-18T02:48:09.366Z,6.40
2023-03-18T02:50:37.216Z,6.53
2023-03-18T02:53:05.935Z,6.37
2023-03-18T02:55:33.686Z,5.97
2023-03-18T02:58:02.851Z,6.40
2023-03-18T03:00:30.954Z,4.70
2023-03-18T03:02:59.095Z,6.53
2023-03-18T03:05:27.425Z,8.17
2023-03-18T03:07:55.274Z,7.67
2023-03-18T03:10:23.178Z,4.80
2023-03-18T03:12:51.416Z,6.10
2023-03-18T03:15:21.202Z,7.00
2023-03-18T03:17:49.441Z,8.30
2023-03-18T03:20:18.112Z,5.30
2023-03-18T03:22:46.338Z,6.53
2023-03-18T03:25:14.661Z,6.80
2023-03-18T03:27:43.597Z,7.30
2023-03-18T03:30:13.800Z,8.87
2023-03-18T03:32:43.181Z,14.77
2023-03-18T03:35:14.108Z,7.63
2023-03-18T03:37:42.304Z,7.03
2023-03-18T03:40:11.551Z,6.83
2023-03-18T03:42:40.248Z,10.40
2023-03-18T03:45:09.389Z,5.70
2023-03-18T03:47:37.415Z,7.83
2023-03-18T03:50:08.186Z,7.27
2023-03-18T03:52:37.199Z,5.80
2023-03-18T03:55:06.017Z,5.17
2023-03-18T03:57:34.020Z,10.60
2023-03-18T04:00:02.033Z,6.10
2023-03-18T04:02:29.861Z,5.53
2023-03-18T04:04:57.754Z,7.40
2023-03-18T04:07:27.122Z,6.13
2023-03-18T04:09:55.879Z,6.17
2023-03-18T04:12:23.804Z,7.33
2023-03-18T04:14:51.931Z,8.57
2023-03-18T04:17:19.813Z,7.57
2023-03-18T04:19:47.712Z,5.37
2023-03-18T04:22:15.793Z,6.30
2023-03-18T04:24:45.717Z,8.07
2023-03-18T04:27:13.787Z,5.77
2023-03-18T04:29:41.815Z,5.20
2023-03-18T04:32:09.678Z,5.00
2023-03-18T04:34:38.458Z,4.90
2023-03-18T04:37:06.331Z,7.83
2023-03-18T04:39:34.155Z,7.07
2023-03-18T04:42:03.321Z,7.97
2023-03-18T04:44:31.127Z,4.90
2023-03-18T04:46:59.701Z,5.43
2023-03-18T04:49:27.560Z,9.97
2023-03-18T04:51:58.147Z,5.50
2023-03-18T04:54:25.984Z,5.17
2023-03-18T04:56:54.270Z,4.40
2023-03-18T04:59:23.540Z,5.67
2023-03-18T05:01:51.372Z,5.87
2023-03-18T05:04:19.233Z,6.30
2023-03-18T05:06:47.225Z,5.63
2023-03-18T05:09:15.131Z,7.93
2023-03-18T05:11:42.988Z,6.87
2023-03-18T05:14:10.810Z,7.17
2023-03-18T05:16:40.105Z,7.90
2023-03-18T05:19:08.481Z,5.97
2023-03-18T05:21:37.478Z,6.13
2023-03-18T05:24:05.502Z,6.80
2023-03-18T05:26:33.339Z,5.47
2023-03-18T05:29:01.126Z,5.13
2023-03-18T05:31:29.516Z,6.10
2023-03-18T05:33:58.788Z,5.37
2023-03-18T05:36:26.568Z,5.17
2023-03-18T05:38:54.404Z,8.23
2023-03-18T05:41:22.231Z,6.60
2023-03-18T05:43:50.048Z,4.33
2023-03-18T05:46:18.051Z,4.47
2023-03-18T05:48:45.895Z,5.37
2023-03-18T05:51:15.235Z,4.27
2023-03-18T05:53:43.009Z,5.83
2023-03-18T05:56:12.157Z,4.80
2023-03-18T05:58:40.200Z,5.93
2023-03-18T06:01:08.241Z,4.90
2023-03-18T06:03:36.151Z,5.97
2023-03-18T06:06:06.393Z,8.37
2023-03-18T06:08:35.937Z,5.97
2023-03-18T06:11:03.905Z,6.50
2023-03-18T06:13:31.886Z,9.77
2023-03-18T06:16:01.356Z,5.20
2023-03-18T06:18:29.108Z,4.83
2023-03-18T06:20:57.225Z,4.47
2023-03-18T06:23:25.628Z,4.30
2023-03-18T06:25:54.856Z,5.37
2023-03-18T06:28:22.700Z,8.50
2023-03-18T06:30:50.571Z,7.60
2023-03-18T06:33:18.442Z,4.33
2023-03-18T06:35:48.576Z,4.83
2023-03-18T06:38:16.722Z,5.93
2023-03-18T06:40:44.767Z,5.10
2023-03-18T06:43:14.138Z,3.90
2023-03-18T06:45:42.195Z,5.73
2023-03-18T06:48:10.557Z,5.10
2023-03-18T06:50:39.484Z,5.00
2023-03-18T06:53:07.839Z,5.27
2023-03-18T06:55:35.892Z,5.17
2023-03-18T06:58:03.832Z,6.10
2023-03-18T07:00:33.944Z,4.20
2023-03-18T07:03:04.821Z,4.43
2023-03-18T07:05:33.072Z,6.70
2023-03-18T07:08:01.542Z,6.17
2023-03-18T07:10:31.970Z,5.07
2023-03-18T07:13:00.124Z,3.87
2023-03-18T07:15:28.674Z,4.53
2023-03-18T07:18:00.343Z,5.10
2023-03-18T07:20:28.710Z,7.47
2023-03-18T07:22:56.646Z,6.40
2023-03-18T07:25:24.526Z,6.63
2023-03-18T07:27:52.359Z,4.27
2023-03-18T07:30:21.173Z,3.50
2023-03-18T07:32:49.580Z,5.70
2023-03-18T07:35:19.486Z,3.30
2023-03-18T07:37:47.279Z,4.83
2023-03-18T07:40:16.515Z,9.53
2023-03-18T07:42:44.323Z,5.30
2023-03-18T07:45:12.503Z,6.47
2023-03-18T07:47:40.277Z,4.50
2023-03-18T07:50:09.510Z,8.23
2023-03-18T07:52:38.664Z,8.23
2023-03-18T07:55:09.030Z,5.60
2023-03-18T07:57:36.938Z,6.70
2023-03-18T08:00:06.061Z,5.77
2023-03-18T08:02:33.949Z,6.10
2023-03-18T08:05:02.109Z,5.67
2023-03-18T08:07:30.593Z,4.43
2023-03-18T08:10:00.361Z,6.90
2023-03-18T08:12:35.553Z,6.73
2023-03-18T08:15:13.138Z,5.10
2023-03-18T08:17:41.421Z,3.40
2023-03-18T08:20:10.647Z,5.07
2023-03-18T08:22:38.508Z,7.07
2023-03-18T08:25:08.634Z,4.63
2023-03-18T08:27:36.412Z,5.50
2023-03-18T08:30:04.597Z,6.40
2023-03-18T08:32:32.494Z,4.03
2023-03-18T08:35:01.360Z,3.67
2023-03-18T08:37:29.428Z,7.33
2023-03-18T08:39:57.241Z,6.03
2023-03-18T08:42:29.057Z,4.40
2023-03-18T08:44:57.717Z,4.07
2023-03-18T08:47:25.763Z,14.77
2023-03-18T08:49:53.892Z,4.73
2023-03-18T08:52:22.310Z,4.33
2023-03-18T08:54:50.462Z,5.30
2023-03-18T08:57:18.401Z,6.63
2023-03-18T08:59:50.493Z,5.50
2023-03-18T09:02:18.524Z,6.23
2023-03-18T09:04:47.619Z,5.27
2023-03-18T09:07:17.944Z,9.60
2023-03-18T09:09:46.813Z,5.03
2023-03-18T09:12:14.982Z,11.90
2023-03-18T09:14:43.876Z,5.43
2023-03-18T09:17:13.203Z,4.70
2023-03-18T09:19:41.129Z,9.50
2023-03-18T09:22:09.375Z,3.37
2023-03-18T09:24:37.220Z,4.30
2023-03-18T09:27:05.218Z,5.73
2023-03-18T09:29:33.297Z,11.17
2023-03-18T09:32:01.368Z,4.83
2023-03-18T09:34:30.515Z,3.87
2023-03-18T09:36:59.139Z,9.13
2023-03-18T09:39:27.139Z,6.40
2023-03-18T09:42:08.709Z,6.77
2023-03-18T09:44:37.648Z,3.57
2023-03-18T09:47:24.528Z,5.33
2023-03-18T09:50:16.484Z,5.27
2023-03-18T09:52:49.143Z,11.85
2023-03-18T09:55:24.873Z,8.27
2023-03-18T09:57:58.503Z,7.33
2023-03-18T10:00:30.470Z,3.97
2023-03-18T10:03:05.846Z,5.23
2023-03-18T10:05:41.225Z,5.43
2023-03-18T10:08:18.036Z,5.43
2023-03-18T10:10:47.654Z,5.30
2023-03-18T10:13:20.257Z,4.73
2023-03-18T10:15:53.978Z,5.20
2023-03-18T10:18:27.807Z,15.23
2023-03-18T10:21:09.138Z,4.20
2023-03-18T10:23:49.520Z,4.53
2023-03-18T10:26:22.118Z,4.70
2023-03-18T10:29:01.424Z,5.93
2023-03-18T10:31:39.591Z,6.80
2023-03-18T10:34:11.414Z,4.97
2023-03-18T10:36:50.899Z,5.20
2023-03-18T10:39:21.582Z,5.17
2023-03-18T10:41:50.920Z,5.03
2023-03-18T10:44:23.576Z,4.30
2023-03-18T10:47:01.704Z,3.90
2023-03-18T10:49:33.081Z,3.53
2023-03-18T10:52:08.650Z,3.60
2023-03-18T10:54:41.355Z,6.63
2023-03-18T10:57:14.042Z,3.00
2023-03-18T10:59:44.546Z,4.70
2023-03-18T11:02:19.473Z,4.50
2023-03-18T11:04:50.752Z,4.60
2023-03-18T11:07:25.776Z,4.60
2023-03-18T11:09:54.192Z,3.60
2023-03-18T11:12:26.951Z,4.63
2023-03-18T11:14:54.762Z,6.07
2023-03-18T11:17:27.283Z,4.93
2023-03-18T11:20:05.319Z,5.23
2023-03-18T11:22:36.571Z,5.30
2023-03-18T11:25:13.757Z,14.33
2023-03-18T11:27:43.768Z,6.77
2023-03-18T11:30:21.423Z,7.63
2023-03-18T11:32:59.364Z,7.93
2023-03-18T11:35:45.998Z,5.23
2023-03-18T11:38:20.472Z,7.23
2023-03-18T11:40:48.713Z,8.70
2023-03-18T11:43:20.580Z,6.90
2023-03-18T11:45:52.212Z,9.30
2023-03-18T11:48:30.220Z,6.97
2023-03-18T11:51:39.542Z,11.10
2023-03-18T11:54:24.474Z,5.30
2023-03-18T11:56:57.200Z,10.10
2023-03-18T11:59:41.800Z,6.33
2023-03-18T12:02:29.371Z,5.40
2023-03-18T12:05:13.785Z,10.77
2023-03-18T12:07:52.995Z,5.60
2023-03-18T12:10:27.003Z,8.87
2023-03-18T12:13:13.345Z,6.40
2023-03-18T12:15:48.477Z,5.90
2023-03-18T12:18:35.647Z,5.47
2023-03-18T12:21:11.023Z,6.57
2023-03-18T12:23:53.709Z,7.40
2023-03-18T12:26:32.231Z,5.63
2023-03-18T12:29:28.840Z,5.40
2023-03-18T12:32:08.252Z,6.70
2023-03-18T12:34:50.288Z,7.03
2023-03-18T12:37:31.987Z,5.50
2023-03-18T12:40:18.388Z,6.90
2023-03-18T12:43:05.050Z,13.00
2023-03-18T12:45:37.038Z,6.30
2023-03-18T12:48:10.891Z,5.30
2023-03-18T12:50:41.882Z,6.30
2023-03-18T12:53:16.503Z,6.27
2023-03-18T12:55:47.963Z,8.93
2023-03-18T12:58:21.848Z,6.17
2023-03-18T13:00:57.101Z,4.80
2023-03-18T13:03:32.707Z,7.40
2023-03-18T13:06:05.117Z,7.00
2023-03-18T13:08:47.439Z,4.73
2023-03-18T13:11:36.067Z,8.37
2023-03-18T13:14:14.583Z,9.40
2023-03-18T13:16:42.987Z,5.80
2023-03-18T13:19:12.162Z,6.13
2023-03-18T13:21:44.216Z,7.10
2023-03-18T13:24:38.740Z,5.93
2023-03-18T13:27:40.142Z,6.87
2023-03-18T13:30:19.403Z,6.33
2023-03-18T13:33:33.227Z,12.30
2023-03-18T13:36:22.311Z,5.20
2023-03-18T13:39:05.440Z,4.77
2023-03-18T13:42:18.153Z,8.67
2023-03-18T13:44:51.008Z,8.00
2023-03-18T13:47:23.392Z,6.73
2023-03-18T13:50:01.993Z,4.73
2023-03-18T13:52:36.213Z,5.00
2023-03-18T13:55:08.081Z,6.67
2023-03-18T13:57:48.948Z,6.97
2023-03-18T14:00:32.943Z,7.20
2023-03-18T14:03:17.271Z,6.33
2023-03-18T14:05:46.823Z,4.13
2023-03-18T14:08:44.894Z,8.77
2023-03-18T14:11:38.691Z,7.17
2023-03-18T14:14:07.050Z,10.80
2023-03-18T14:16:52.801Z,10.83
2023-03-18T14:19:28.404Z,5.87
2023-03-18T14:22:07.833Z,5.63
2023-03-18T14:24:36.223Z,5.97
2023-03-18T14:27:15.677Z,6.53
2023-03-18T14:29:46.573Z,14.70
2023-03-18T14:32:31.989Z,6.67
2023-03-18T14:35:05.149Z,7.07
2023-03-18T14:37:34.289Z,7.50
2023-03-18T14:40:07.108Z,4.77
2023-03-18T14:42:45.852Z,7.00
2023-03-18T14:45:20.472Z,7.00
2023-03-18T14:47:52.210Z,6.00
2023-03-18T14:50:30.266Z,6.40
2023-03-18T14:53:04.870Z,5.53
2023-03-18T14:55:35.443Z,6.00
2023-03-18T14:58:03.898Z,9.90
2023-03-18T15:00:35.586Z,7.40
2023-03-18T15:03:07.755Z,9.50
2023-03-18T15:05:38.973Z,4.10
2023-03-18T15:08:14.547Z,6.47
2023-03-18T15:10:43.461Z,8.80
2023-03-18T15:13:14.431Z,7.30
2023-03-18T15:15:43.237Z,7.63
2023-03-18T15:18:20.565Z,6.10
2023-03-18T15:20:52.557Z,12.93
2023-03-18T15:23:27.857Z,4.97
2023-03-18T15:25:56.157Z,13.87
2023-03-18T15:28:28.288Z,7.40
2023-03-18T15:30:58.409Z,8.90
2023-03-18T15:33:31.262Z,6.73
2023-03-18T15:36:06.068Z,5.50
2023-03-18T15:38:34.702Z,5.53
2023-03-18T15:41:04.555Z,4.33
2023-03-18T15:43:36.314Z,5.90
2023-03-18T15:46:08.643Z,8.47
2023-03-18T15:48:40.135Z,6.60
2023-03-18T15:51:24.757Z,5.83
2023-03-18T15:53:54.622Z,7.70
2023-03-18T15:56:27.155Z,6.53
2023-03-18T15:59:00.610Z,8.57
2023-03-18T16:01:28.512Z,7.57
2023-03-18T16:03:56.378Z,9.47
2023-03-18T16:06:26.674Z,5.60
2023-03-18T16:08:54.456Z,7.30
2023-03-18T16:11:24.163Z,6.43
2023-03-18T16:13:53.022Z,5.87
2023-03-18T16:16:27.404Z,6.13
2023-03-18T16:18:57.124Z,5.93
2023-03-18T16:21:26.964Z,6.57
2023-03-18T16:23:54.838Z,5.93
2023-03-18T16:26:23.732Z,6.00
2023-03-18T16:28:51.502Z,7.77
2023-03-18T16:31:19.292Z,7.53
2023-03-18T16:33:49.874Z,5.33
2023-03-18T16:36:26.748Z,5.93
2023-03-18T16:38:55.998Z,6.17
2023-03-18T16:41:23.788Z,6.73
2023-03-18T16:43:52.531Z,4.80
2023-03-18T16:46:20.432Z,6.60
2023-03-18T16:48:52.181Z,5.87
2023-03-18T16:51:19.980Z,7.73
2023-03-18T16:53:48.297Z,8.43
2023-03-18T16:56:21.764Z,5.90
2023-03-18T16:58:50.501Z,7.27
2023-03-18T17:01:19.373Z,7.17
2023-03-18T17:03:47.937Z,5.50
2023-03-18T17:06:15.846Z,6.23
2023-03-18T17:08:43.632Z,6.37
2023-03-18T17:11:17.889Z,6.83
2023-03-18T17:13:48.594Z,11.73
2023-03-18T17:16:18.889Z,5.87
2023-03-18T17:18:46.753Z,6.70
2023-03-18T17:21:15.344Z,7.57
2023-03-18T17:23:43.183Z,4.00
2023-03-18T17:26:15.001Z,6.13
2023-03-18T17:28:45.072Z,5.00
2023-03-18T17:31:14.991Z,6.40
2023-03-18T17:33:42.993Z,5.63
2023-03-18T17:36:10.808Z,5.53
2023-03-18T17:38:38.613Z,6.50
2023-03-18T17:41:13.390Z,5.87
2023-03-18T17:43:41.903Z,7.73
2023-03-18T17:46:09.848Z,7.80
2023-03-18T17:48:41.134Z,5.17
2023-03-18T17:51:13.999Z,6.40
2023-03-18T17:53:44.700Z,8.83
2023-03-18T17:56:14.956Z,15.33
2023-03-18T17:58:45.452Z,7.80
2023-03-18T18:01:15.350Z,12.90
2023-03-18T18:03:44.589Z,9.00
2023-03-18T18:06:18.344Z,7.80
2023-03-18T18:08:46.857Z,14.97
2023-03-18T18:11:19.937Z,8.30
2023-03-18T18:13:48.368Z,6.77
2023-03-18T18:16:16.580Z,9.23
2023-03-18T18:18:48.325Z,7.60
2023-03-18T18:21:20.101Z,15.10
2023-03-18T18:23:49.889Z,8.43
2023-03-18T18:26:21.197Z,7.63
2023-03-18T18:28:50.932Z,20.33
2023-03-18T18:31:20.689Z,23.33
2023-03-18T18:33:50.880Z,16.70
2023-03-18T18:36:19.332Z,10.20
2023-03-18T18:38:47.189Z,9.07
2023-03-18T18:41:15.179Z,11.23
2023-03-18T18:43:43.029Z,10.97
2023-03-18T18:46:14.528Z,13.03
2023-03-18T18:48:43.113Z,11.70
2023-03-18T18:51:17.055Z,10.63
2023-03-18T18:53:46.277Z,15.60
2023-03-18T18:56:18.393Z,13.00
2023-03-18T18:58:46.689Z,11.57
2023-03-18T19:01:16.006Z,15.50
2023-03-18T19:03:44.047Z,13.47
2023-03-18T19:06:21.790Z,11.00
2023-03-18T19:08:49.653Z,13.67
2023-03-18T19:11:18.735Z,14.33
2023-03-18T19:13:47.572Z,13.63
2023-03-18T19:16:24.256Z,18.03
2023-03-18T19:18:52.065Z,12.97
2023-03-18T19:21:21.895Z,12.87
2023-03-18T19:23:49.784Z,16.53
2023-03-18T19:26:18.619Z,13.03
2023-03-18T19:28:59.046Z,13.27
2023-03-18T19:31:30.511Z,12.87
2023-03-18T19:34:00.499Z,14.60
2023-03-18T19:36:31.584Z,17.20
2023-03-18T19:39:01.303Z,16.60
2023-03-18T19:41:29.874Z,11.87
2023-03-18T19:44:03.812Z,10.87
2023-03-18T19:46:38.694Z,10.50
2023-03-18T19:49:18.776Z,12.10
2023-03-18T19:51:49.639Z,17.97
2023-03-18T19:54:28.225Z,14.70
2023-03-18T19:56:57.054Z,15.40
2023-03-18T19:59:33.503Z,17.60
2023-03-18T20:02:12.475Z,19.20
2023-03-18T20:04:41.344Z,15.00
2023-03-18T20:07:10.591Z,12.00
2023-03-18T20:09:39.302Z,10.63
2023-03-18T20:12:10.626Z,17.73
2023-03-18T20:14:39.065Z,16.83
2023-03-18T20:17:29.094Z,17.17
2023-03-18T20:19:57.428Z,13.70
2023-03-18T20:22:28.386Z,20.03
2023-03-18T20:24:56.630Z,19.47
2023-03-18T20:27:24.576Z,16.80
2023-03-18T20:29:52.403Z,15.73
2023-03-18T20:32:20.231Z,16.00
2023-03-18T20:34:48.400Z,17.70
2023-03-18T20:37:23.283Z,14.90
2023-03-18T20:39:53.130Z,18.07
2023-03-18T20:42:21.045Z,17.70
2023-03-18T20:44:48.934Z,20.00
2023-03-18T20:47:16.697Z,19.93
2023-03-18T20:49:45.573Z,17.80
2023-03-18T20:52:24.153Z,13.63
2023-03-18T20:54:53.728Z,16.50
2023-03-18T20:57:21.600Z,19.20
2023-03-18T20:59:49.833Z,15.67
2023-03-18T21:02:32.595Z,16.27
2023-03-18T21:05:01.814Z,16.20
2023-03-18T21:07:30.022Z,14.73
2023-03-18T21:09:59.313Z,18.80
2023-03-18T21:12:27.218Z,16.20
2023-03-18T21:14:55.075Z,17.40
2023-03-18T21:17:24.649Z,15.77
2023-03-18T21:19:54.355Z,17.60
2023-03-18T21:22:25.396Z,17.90
2023-03-18T21:24:53.433Z,16.57
2023-03-18T21:27:24.256Z,14.80
2023-03-18T21:29:53.008Z,18.87
2023-03-18T21:32:25.434Z,20.67
2023-03-18T21:34:54.076Z,20.73
2023-03-18T21:37:23.876Z,21.37
2023-03-18T21:39:52.144Z,18.17
2023-03-18T21:42:23.798Z,19.07
2023-03-18T21:44:51.902Z,17.30
2023-03-18T21:47:21.043Z,12.40
2023-03-18T21:49:49.642Z,17.57
2023-03-18T21:52:20.403Z,19.03
2023-03-18T21:54:48.228Z,15.17
2023-03-18T21:57:18.299Z,22.13
2023-03-18T21:59:47.589Z,20.90
2023-03-18T22:02:27.417Z,15.70
2023-03-18T22:04:56.793Z,15.60
2023-03-18T22:07:24.705Z,12.90
2023-03-18T22:09:52.574Z,14.53
2023-03-18T22:12:23.915Z,12.70
2023-03-18T22:14:53.851Z,14.47
2023-03-18T22:17:24.360Z,20.90
2023-03-18T22:19:52.947Z,17.83
2023-03-18T22:22:22.939Z,15.50
2023-03-18T22:24:51.253Z,15.50
2023-03-18T22:27:20.858Z,14.77
2023-03-18T22:29:49.560Z,15.20
2023-03-18T22:32:36.142Z,16.33
2023-03-18T22:35:05.028Z,14.50
2023-03-18T22:37:33.036Z,16.33
2023-03-18T22:40:01.393Z,13.07
2023-03-18T22:42:29.418Z,12.10
2023-03-18T22:44:57.473Z,18.23
2023-03-18T22:47:27.196Z,17.10
2023-03-18T22:49:55.274Z,18.37
2023-03-18T22:52:26.125Z,11.83
2023-03-18T22:54:55.868Z,13.00
2023-03-18T22:57:26.234Z,13.43
2023-03-18T23:02:36.885Z,22.33
2023-03-18T23:05:04.986Z,14.20
2023-03-18T23:07:34.313Z,16.80
2023-03-18T23:10:04.577Z,16.97
2023-03-18T23:12:34.507Z,15.20
2023-03-18T23:15:03.832Z,14.17
2023-03-18T23:17:32.070Z,19.50
2023-03-18T23:20:01.244Z,18.40
2023-03-18T23:22:32.039Z,12.70
2023-03-18T23:24:59.949Z,16.17
2023-03-18T23:27:29.238Z,15.10
2023-03-18T23:29:57.441Z,14.83
2023-03-18T23:32:25.459Z,13.47
2023-03-18T23:34:53.585Z,17.67
2023-03-18T23:37:24.038Z,13.93
2023-03-18T23:39:51.809Z,15.10
2023-03-18T23:42:21.618Z,18.57
2023-03-18T23:44:49.601Z,19.30
2023-03-18T23:47:17.628Z,15.70
2023-03-18T23:49:45.441Z,18.50
2023-03-18T23:52:14.850Z,19.77
2023-03-18T23:54:44.177Z,15.50
2023-03-18T23:57:12.352Z,18.43
2023-03-18T23:59:40.495Z,16.93
